sensor_id;sensor_type;location;lat;lon;timestamp;P1;durP1;ratioP1;P2;durP2;ratioP2
65552;SDS011;52465;51.560;14.368;2023-06-10T00:01:07;8.32;;;7.63;;
65552;SDS011;52465;51.560;14.368;2023-06-10T00:03:32;8.32;;;7.63;;
65552;SDS011;52465;51.560;14.368;2023-06-10T00:05:57;8.13;;;7.50;;
65552;SDS011;52465;51.560;14.368;2023-06-10T00:08:23;8.10;;;7.30;;
65552;SDS011;52465;51.560;14.368;2023-06-10T00:10:49;8.40;;;7.70;;
65552;SDS011;52465;51.560;14.368;2023-06-10T00:13:14;8.80;;;7.88;;
65552;SDS011;52465;51.560;14.368;2023-06-10T00:15:41;8.27;;;7.57;;
65552;SDS011;52465;51.560;14.368;2023-06-10T00:18:07;8.55;;;7.70;;
65552;SDS011;52465;51.560;14.368;2023-06-10T00:20:34;8.38;;;7.60;;
65552;SDS011;52465;51.560;14.368;2023-06-10T00:23:01;8.23;;;7.53;;
65552;SDS011;52465;51.560;14.368;2023-06-10T00:25:26;8.48;;;7.78;;
65552;SDS011;52465;51.560;14.368;2023-06-10T00:27:51;7.63;;;7.00;;
65552;SDS011;52465;51.560;14.368;2023-06-10T00:30:17;8.73;;;7.85;;
65552;SDS011;52465;51.560;14.368;2023-06-10T00:32:42;8.35;;;7.55;;
65552;SDS011;52465;51.560;14.368;2023-06-10T00:35:08;8.30;;;7.60;;
65552;SDS011;52465;51.560;14.368;2023-06-10T00:37:33;8.80;;;8.00;;
65552;SDS011;52465;51.560;14.368;2023-06-10T00:40:03;8.40;;;7.70;;
65552;SDS011;52465;51.560;14.368;2023-06-10T00:42:29;9.13;;;8.25;;
65552;SDS011;52465;51.560;14.368;2023-06-10T00:44:55;9.00;;;8.20;;
65552;SDS011;52465;51.560;14.368;2023-06-10T00:47:20;8.50;;;7.70;;
65552;SDS011;52465;51.560;14.368;2023-06-10T00:49:46;8.70;;;8.00;;
65552;SDS011;52465;51.560;14.368;2023-06-10T00:52:12;9.07;;;8.27;;
65552;SDS011;52465;51.560;14.368;2023-06-10T00:54:39;7.97;;;7.28;;
65552;SDS011;52465;51.560;14.368;2023-06-10T00:57:05;8.50;;;7.70;;
65552;SDS011;52465;51.560;14.368;2023-06-10T00:59:30;8.48;;;7.57;;
65552;SDS011;52465;51.560;14.368;2023-06-10T01:04:08;8.68;;;7.88;;
65552;SDS011;52465;51.560;14.368;2023-06-10T01:06:41;9.07;;;8.10;;
65552;SDS011;52465;51.560;14.368;2023-06-10T01:11:00;8.43;;;7.63;;
65552;SDS011;52465;51.560;14.368;2023-06-10T01:13:28;8.40;;;7.53;;
65552;SDS011;52465;51.560;14.368;2023-06-10T01:15:56;8.45;;;7.85;;
65552;SDS011;52465;51.560;14.368;2023-06-10T01:18:23;8.63;;;7.82;;
65552;SDS011;52465;51.560;14.368;2023-06-10T01:20:48;8.73;;;7.93;;
65552;SDS011;52465;51.560;14.368;2023-06-10T01:23:14;8.60;;;7.70;;
65552;SDS011;52465;51.560;14.368;2023-06-10T01:25:43;7.78;;;7.18;;
65552;SDS011;52465;51.560;14.368;2023-06-10T01:28:19;8.35;;;7.55;;
65552;SDS011;52465;51.560;14.368;2023-06-10T01:35:44;8.45;;;7.72;;
65552;SDS011;52465;51.560;14.368;2023-06-10T01:38:12;8.18;;;7.55;;
65552;SDS011;52465;51.560;14.368;2023-06-10T01:40:39;8.30;;;7.60;;
65552;SDS011;52465;51.560;14.368;2023-06-10T01:43:05;9.05;;;8.25;;
65552;SDS011;52465;51.560;14.368;2023-06-10T01:45:30;8.25;;;7.55;;
65552;SDS011;52465;51.560;14.368;2023-06-10T01:47:56;8.38;;;7.70;;
65552;SDS011;52465;51.560;14.368;2023-06-10T01:50:21;8.55;;;7.75;;
65552;SDS011;52465;51.560;14.368;2023-06-10T01:52:46;8.32;;;7.63;;
65552;SDS011;52465;51.560;14.368;2023-06-10T01:55:12;9.10;;;8.23;;
65552;SDS011;52465;51.560;14.368;2023-06-10T01:57:37;8.63;;;7.82;;
65552;SDS011;52465;51.560;14.368;2023-06-10T02:00:02;8.70;;;7.90;;
65552;SDS011;52465;51.560;14.368;2023-06-10T02:02:28;9.35;;;8.40;;
65552;SDS011;52465;51.560;14.368;2023-06-10T02:04:53;9.50;;;8.57;;
65552;SDS011;52465;51.560;14.368;2023-06-10T02:07:19;8.75;;;7.95;;
65552;SDS011;52465;51.560;14.368;2023-06-10T02:09:44;8.93;;;8.02;;
65552;SDS011;52465;51.560;14.368;2023-06-10T02:12:09;8.88;;;8.10;;
65552;SDS011;52465;51.560;14.368;2023-06-10T02:14:35;8.52;;;7.80;;
65552;SDS011;52465;51.560;14.368;2023-06-10T02:17:01;8.57;;;7.72;;
65552;SDS011;52465;51.560;14.368;2023-06-10T02:19:26;8.15;;;7.45;;
65552;SDS011;52465;51.560;14.368;2023-06-10T02:21:52;8.73;;;7.93;;
65552;SDS011;52465;51.560;14.368;2023-06-10T02:24:17;8.05;;;7.35;;
65552;SDS011;52465;51.560;14.368;2023-06-10T02:26:43;8.57;;;7.80;;
65552;SDS011;52465;51.560;14.368;2023-06-10T02:29:09;8.32;;;7.53;;
65552;SDS011;52465;51.560;14.368;2023-06-10T02:33:38;8.48;;;7.70;;
65552;SDS011;52465;51.560;14.368;2023-06-10T02:36:06;8.68;;;7.97;;
65552;SDS011;52465;51.560;14.368;2023-06-10T02:38:31;8.23;;;7.50;;
65552;SDS011;52465;51.560;14.368;2023-06-10T02:40:56;8.88;;;8.10;;
65552;SDS011;52465;51.560;14.368;2023-06-10T02:43:22;8.75;;;8.05;;
65552;SDS011;52465;51.560;14.368;2023-06-10T02:45:47;8.40;;;7.70;;
65552;SDS011;52465;51.560;14.368;2023-06-10T02:48:12;8.32;;;7.53;;
65552;SDS011;52465;51.560;14.368;2023-06-10T02:50:37;8.93;;;8.02;;
65552;SDS011;52465;51.560;14.368;2023-06-10T02:53:05;8.75;;;7.95;;
65552;SDS011;52465;51.560;14.368;2023-06-10T02:55:30;8.25;;;7.45;;
65552;SDS011;52465;51.560;14.368;2023-06-10T02:57:55;8.23;;;7.47;;
65552;SDS011;52465;51.560;14.368;2023-06-10T03:00:21;8.65;;;7.95;;
65552;SDS011;52465;51.560;14.368;2023-06-10T03:02:47;8.40;;;7.70;;
65552;SDS011;52465;51.560;14.368;2023-06-10T03:05:13;8.55;;;7.78;;
65552;SDS011;52465;51.560;14.368;2023-06-10T03:07:39;8.60;;;7.80;;
65552;SDS011;52465;51.560;14.368;2023-06-10T03:10:05;8.70;;;7.95;;
65552;SDS011;52465;51.560;14.368;2023-06-10T03:12:31;8.80;;;8.10;;
65552;SDS011;52465;51.560;14.368;2023-06-10T03:14:57;8.80;;;8.00;;
65552;SDS011;52465;51.560;14.368;2023-06-10T03:17:22;8.68;;;7.97;;
65552;SDS011;52465;51.560;14.368;2023-06-10T03:19:48;8.65;;;7.95;;
65552;SDS011;52465;51.560;14.368;2023-06-10T03:22:14;8.73;;;8.02;;
65552;SDS011;52465;51.560;14.368;2023-06-10T03:24:41;8.40;;;7.70;;
65552;SDS011;52465;51.560;14.368;2023-06-10T03:27:07;8.43;;;7.70;;
65552;SDS011;52465;51.560;14.368;2023-06-10T03:29:33;8.48;;;7.78;;
65552;SDS011;52465;51.560;14.368;2023-06-10T03:31:58;8.75;;;7.95;;
65552;SDS011;52465;51.560;14.368;2023-06-10T03:34:24;9.02;;;8.13;;
65552;SDS011;52465;51.560;14.368;2023-06-10T03:36:50;8.90;;;8.10;;
65552;SDS011;52465;51.560;14.368;2023-06-10T03:39:15;8.50;;;7.80;;
65552;SDS011;52465;51.560;14.368;2023-06-10T03:41:41;8.52;;;7.82;;
65552;SDS011;52465;51.560;14.368;2023-06-10T03:44:06;8.43;;;7.70;;
65552;SDS011;52465;51.560;14.368;2023-06-10T03:46:32;8.90;;;8.10;;
65552;SDS011;52465;51.560;14.368;2023-06-10T03:48:57;8.50;;;7.78;;
65552;SDS011;52465;51.560;14.368;2023-06-10T03:51:25;8.40;;;7.70;;
65552;SDS011;52465;51.560;14.368;2023-06-10T03:53:51;8.80;;;8.10;;
65552;SDS011;52465;51.560;14.368;2023-06-10T03:56:16;8.38;;;7.68;;
65552;SDS011;52465;51.560;14.368;2023-06-10T03:58:41;8.98;;;8.25;;
65552;SDS011;52465;51.560;14.368;2023-06-10T04:01:06;8.40;;;7.80;;
65552;SDS011;52465;51.560;14.368;2023-06-10T04:03:32;8.55;;;7.82;;
65552;SDS011;52465;51.560;14.368;2023-06-10T04:05:58;8.70;;;8.00;;
65552;SDS011;52465;51.560;14.368;2023-06-10T04:08:56;8.80;;;8.00;;
65552;SDS011;52465;51.560;14.368;2023-06-10T04:11:23;8.60;;;7.65;;
65552;SDS011;52465;51.560;14.368;2023-06-10T04:13:49;8.98;;;8.10;;
65552;SDS011;52465;51.560;14.368;2023-06-10T04:16:16;8.60;;;7.88;;
65552;SDS011;52465;51.560;14.368;2023-06-10T04:18:41;8.27;;;7.68;;
65552;SDS011;52465;51.560;14.368;2023-06-10T04:21:09;8.73;;;7.93;;
65552;SDS011;52465;51.560;14.368;2023-06-10T04:23:35;9.05;;;8.30;;
65552;SDS011;52465;51.560;14.368;2023-06-10T04:26:02;9.18;;;8.38;;
65552;SDS011;52465;51.560;14.368;2023-06-10T04:28:27;8.30;;;7.60;;
65552;SDS011;52465;51.560;14.368;2023-06-10T04:30:52;8.82;;;8.13;;
65552;SDS011;52465;51.560;14.368;2023-06-10T04:33:18;8.95;;;7.93;;
65552;SDS011;52465;51.560;14.368;2023-06-10T04:35:43;8.60;;;7.90;;
65552;SDS011;52465;51.560;14.368;2023-06-10T04:38:09;8.88;;;8.15;;
65552;SDS011;52465;51.560;14.368;2023-06-10T04:40:34;8.98;;;8.18;;
65552;SDS011;52465;51.560;14.368;2023-06-10T04:43:00;9.82;;;8.93;;
65552;SDS011;52465;51.560;14.368;2023-06-10T04:45:25;9.43;;;8.25;;
65552;SDS011;52465;51.560;14.368;2023-06-10T04:47:51;9.15;;;8.35;;
65552;SDS011;52465;51.560;14.368;2023-06-10T04:50:16;9.48;;;8.57;;
65552;SDS011;52465;51.560;14.368;2023-06-10T04:52:42;8.65;;;7.95;;
65552;SDS011;52465;51.560;14.368;2023-06-10T04:55:08;8.98;;;8.27;;
65552;SDS011;52465;51.560;14.368;2023-06-10T04:57:34;9.73;;;8.82;;
65552;SDS011;52465;51.560;14.368;2023-06-10T04:59:59;8.80;;;8.00;;
65552;SDS011;52465;51.560;14.368;2023-06-10T05:02:24;8.70;;;7.90;;
65552;SDS011;52465;51.560;14.368;2023-06-10T05:04:50;8.95;;;8.15;;
65552;SDS011;52465;51.560;14.368;2023-06-10T05:07:15;9.02;;;8.20;;
65552;SDS011;52465;51.560;14.368;2023-06-10T05:09:40;9.35;;;8.48;;
65552;SDS011;52465;51.560;14.368;2023-06-10T05:12:06;9.30;;;8.38;;
65552;SDS011;52465;51.560;14.368;2023-06-10T05:14:31;9.40;;;8.48;;
65552;SDS011;52465;51.560;14.368;2023-06-10T05:16:57;9.63;;;8.70;;
65552;SDS011;52465;51.560;14.368;2023-06-10T05:19:22;8.90;;;8.10;;
65552;SDS011;52465;51.560;14.368;2023-06-10T05:21:47;9.23;;;8.43;;
65552;SDS011;52465;51.560;14.368;2023-06-10T05:24:13;8.93;;;8.18;;
65552;SDS011;52465;51.560;14.368;2023-06-10T05:26:38;9.23;;;8.43;;
65552;SDS011;52465;51.560;14.368;2023-06-10T05:29:04;9.75;;;8.93;;
65552;SDS011;52465;51.560;14.368;2023-06-10T05:31:30;9.23;;;8.43;;
65552;SDS011;52465;51.560;14.368;2023-06-10T05:33:55;9.75;;;8.85;;
65552;SDS011;52465;51.560;14.368;2023-06-10T05:36:21;9.50;;;8.60;;
65552;SDS011;52465;51.560;14.368;2023-06-10T05:38:47;9.50;;;8.70;;
65552;SDS011;52465;51.560;14.368;2023-06-10T05:41:13;9.85;;;8.95;;
65552;SDS011;52465;51.560;14.368;2023-06-10T05:43:38;9.07;;;8.30;;
65552;SDS011;52465;51.560;14.368;2023-06-10T05:46:05;9.55;;;8.75;;
65552;SDS011;52465;51.560;14.368;2023-06-10T05:48:30;9.75;;;8.85;;
65552;SDS011;52465;51.560;14.368;2023-06-10T05:50:55;9.60;;;8.80;;
65552;SDS011;52465;51.560;14.368;2023-06-10T05:53:21;9.52;;;8.63;;
65552;SDS011;52465;51.560;14.368;2023-06-10T05:55:46;10.32;;;9.32;;
65552;SDS011;52465;51.560;14.368;2023-06-10T05:58:12;10.05;;;9.15;;
65552;SDS011;52465;51.560;14.368;2023-06-10T06:00:39;10.32;;;9.32;;
65552;SDS011;52465;51.560;14.368;2023-06-10T06:03:07;10.00;;;9.10;;
65552;SDS011;52465;51.560;14.368;2023-06-10T06:05:36;10.75;;;9.80;;
65552;SDS011;52465;51.560;14.368;2023-06-10T06:08:02;10.00;;;9.05;;
65552;SDS011;52465;51.560;14.368;2023-06-10T06:10:30;9.98;;;9.07;;
65552;SDS011;52465;51.560;14.368;2023-06-10T06:12:56;10.00;;;8.98;;
65552;SDS011;52465;51.560;14.368;2023-06-10T06:15:22;9.98;;;8.95;;
65552;SDS011;52465;51.560;14.368;2023-06-10T06:17:47;10.13;;;9.25;;
65552;SDS011;52465;51.560;14.368;2023-06-10T06:20:12;10.07;;;9.23;;
65552;SDS011;52465;51.560;14.368;2023-06-10T06:22:39;10.23;;;9.23;;
65552;SDS011;52465;51.560;14.368;2023-06-10T06:25:05;9.95;;;9.05;;
65552;SDS011;52465;51.560;14.368;2023-06-10T06:27:31;10.85;;;9.75;;
65552;SDS011;52465;51.560;14.368;2023-06-10T06:29:56;9.70;;;8.90;;
65552;SDS011;52465;51.560;14.368;2023-06-10T06:32:22;10.48;;;9.57;;
65552;SDS011;52465;51.560;14.368;2023-06-10T06:34:47;10.20;;;9.30;;
65552;SDS011;52465;51.560;14.368;2023-06-10T06:37:18;9.75;;;9.00;;
65552;SDS011;52465;51.560;14.368;2023-06-10T06:39:44;10.00;;;9.10;;
65552;SDS011;52465;51.560;14.368;2023-06-10T06:42:09;10.40;;;9.50;;
65552;SDS011;52465;51.560;14.368;2023-06-10T06:44:34;10.70;;;9.70;;
65552;SDS011;52465;51.560;14.368;2023-06-10T06:47:00;11.00;;;9.73;;
65552;SDS011;52465;51.560;14.368;2023-06-10T06:49:25;10.10;;;9.20;;
65552;SDS011;52465;51.560;14.368;2023-06-10T06:51:50;10.23;;;9.32;;
65552;SDS011;52465;51.560;14.368;2023-06-10T06:54:16;9.88;;;9.05;;
65552;SDS011;52465;51.560;14.368;2023-06-10T06:56:41;10.85;;;9.77;;
65552;SDS011;52465;51.560;14.368;2023-06-10T06:59:06;10.75;;;9.75;;
65552;SDS011;52465;51.560;14.368;2023-06-10T07:01:32;10.05;;;9.13;;
65552;SDS011;52465;51.560;14.368;2023-06-10T07:03:58;10.27;;;9.38;;
65552;SDS011;52465;51.560;14.368;2023-06-10T07:06:23;11.20;;;10.10;;
65552;SDS011;52465;51.560;14.368;2023-06-10T07:08:49;11.18;;;10.18;;
65552;SDS011;52465;51.560;14.368;2023-06-10T07:11:16;10.25;;;9.35;;
65552;SDS011;52465;51.560;14.368;2023-06-10T07:13:42;10.60;;;9.65;;
65552;SDS011;52465;51.560;14.368;2023-06-10T07:16:08;11.18;;;10.18;;
65552;SDS011;52465;51.560;14.368;2023-06-10T07:18:33;10.95;;;9.85;;
65552;SDS011;52465;51.560;14.368;2023-06-10T07:20:58;10.93;;;10.05;;
65552;SDS011;52465;51.560;14.368;2023-06-10T07:23:23;10.80;;;9.82;;
65552;SDS011;52465;51.560;14.368;2023-06-10T07:25:49;10.32;;;9.40;;
65552;SDS011;52465;51.560;14.368;2023-06-10T07:28:15;11.20;;;10.18;;
65552;SDS011;52465;51.560;14.368;2023-06-10T07:30:40;11.35;;;10.23;;
65552;SDS011;52465;51.560;14.368;2023-06-10T07:33:05;11.63;;;10.48;;
65552;SDS011;52465;51.560;14.368;2023-06-10T07:35:32;11.23;;;10.15;;
65552;SDS011;52465;51.560;14.368;2023-06-10T07:37:58;11.27;;;10.15;;
65552;SDS011;52465;51.560;14.368;2023-06-10T07:42:29;11.63;;;10.52;;
65552;SDS011;52465;51.560;14.368;2023-06-10T07:44:54;10.63;;;9.73;;
65552;SDS011;52465;51.560;14.368;2023-06-10T07:47:20;10.98;;;9.93;;
65552;SDS011;52465;51.560;14.368;2023-06-10T07:49:45;10.65;;;9.82;;
65552;SDS011;52465;51.560;14.368;2023-06-10T07:52:10;10.98;;;10.07;;
65552;SDS011;52465;51.560;14.368;2023-06-10T07:54:36;10.75;;;9.75;;
65552;SDS011;52465;51.560;14.368;2023-06-10T07:57:01;11.23;;;10.23;;
65552;SDS011;52465;51.560;14.368;2023-06-10T07:59:26;10.60;;;9.57;;
65552;SDS011;52465;51.560;14.368;2023-06-10T08:01:52;10.55;;;9.75;;
65552;SDS011;52465;51.560;14.368;2023-06-10T08:04:18;10.80;;;9.90;;
65552;SDS011;52465;51.560;14.368;2023-06-10T08:06:43;10.77;;;9.77;;
65552;SDS011;52465;51.560;14.368;2023-06-10T08:09:08;11.55;;;10.35;;
65552;SDS011;52465;51.560;14.368;2023-06-10T08:11:33;10.68;;;9.77;;
65552;SDS011;52465;51.560;14.368;2023-06-10T08:13:59;12.20;;;9.43;;
65552;SDS011;52465;51.560;14.368;2023-06-10T08:16:24;10.50;;;9.20;;
65552;SDS011;52465;51.560;14.368;2023-06-10T08:18:50;11.40;;;9.95;;
65552;SDS011;52465;51.560;14.368;2023-06-10T08:21:15;10.75;;;9.73;;
65552;SDS011;52465;51.560;14.368;2023-06-10T08:23:43;11.65;;;10.55;;
65552;SDS011;52465;51.560;14.368;2023-06-10T08:26:09;10.60;;;9.60;;
65552;SDS011;52465;51.560;14.368;2023-06-10T08:28:34;10.50;;;9.50;;
65552;SDS011;52465;51.560;14.368;2023-06-10T08:31:00;10.55;;;9.65;;
65552;SDS011;52465;51.560;14.368;2023-06-10T08:33:25;10.43;;;9.52;;
65552;SDS011;52465;51.560;14.368;2023-06-10T08:35:51;10.55;;;9.55;;
65552;SDS011;52465;51.560;14.368;2023-06-10T08:38:16;11.13;;;9.98;;
65552;SDS011;52465;51.560;14.368;2023-06-10T08:40:41;10.32;;;9.35;;
65552;SDS011;52465;51.560;14.368;2023-06-10T08:43:08;10.70;;;9.60;;
65552;SDS011;52465;51.560;14.368;2023-06-10T08:45:40;10.85;;;9.85;;
65552;SDS011;52465;51.560;14.368;2023-06-10T08:48:08;10.45;;;9.55;;
65552;SDS011;52465;51.560;14.368;2023-06-10T08:50:37;10.63;;;9.63;;
65552;SDS011;52465;51.560;14.368;2023-06-10T08:53:07;10.57;;;9.68;;
65552;SDS011;52465;51.560;14.368;2023-06-10T08:55:35;10.73;;;9.73;;
65552;SDS011;52465;51.560;14.368;2023-06-10T08:58:02;10.33;;;9.30;;
65552;SDS011;52465;51.560;14.368;2023-06-10T09:00:28;10.45;;;9.45;;
65552;SDS011;52465;51.560;14.368;2023-06-10T09:02:56;10.57;;;9.68;;
65552;SDS011;52465;51.560;14.368;2023-06-10T09:05:22;10.88;;;9.80;;
65552;SDS011;52465;51.560;14.368;2023-06-10T09:07:48;10.60;;;9.57;;
65552;SDS011;52465;51.560;14.368;2023-06-10T09:10:16;10.25;;;9.38;;
65552;SDS011;52465;51.560;14.368;2023-06-10T09:12:41;10.90;;;9.75;;
65552;SDS011;52465;51.560;14.368;2023-06-10T09:15:06;10.50;;;9.63;;
65552;SDS011;52465;51.560;14.368;2023-06-10T09:17:32;10.82;;;9.63;;
65552;SDS011;52465;51.560;14.368;2023-06-10T09:19:59;9.90;;;9.00;;
65552;SDS011;52465;51.560;14.368;2023-06-10T09:22:27;10.52;;;9.60;;
65552;SDS011;52465;51.560;14.368;2023-06-10T09:27:53;10.27;;;9.38;;
65552;SDS011;52465;51.560;14.368;2023-06-10T09:30:27;10.55;;;9.57;;
65552;SDS011;52465;51.560;14.368;2023-06-10T09:32:57;10.25;;;9.25;;
65552;SDS011;52465;51.560;14.368;2023-06-10T09:35:23;10.23;;;8.65;;
65552;SDS011;52465;51.560;14.368;2023-06-10T09:37:51;9.88;;;8.77;;
65552;SDS011;52465;51.560;14.368;2023-06-10T09:40:17;10.02;;;9.07;;
65552;SDS011;52465;51.560;14.368;2023-06-10T09:42:43;9.90;;;8.90;;
65552;SDS011;52465;51.560;14.368;2023-06-10T09:45:08;12.93;;;10.15;;
65552;SDS011;52465;51.560;14.368;2023-06-10T09:47:34;12.88;;;10.07;;
65552;SDS011;52465;51.560;14.368;2023-06-10T09:49:59;10.65;;;9.60;;
65552;SDS011;52465;51.560;14.368;2023-06-10T09:52:27;13.73;;;9.60;;
65552;SDS011;52465;51.560;14.368;2023-06-10T09:54:54;11.18;;;9.68;;
65552;SDS011;52465;51.560;14.368;2023-06-10T09:57:24;11.00;;;9.88;;
65552;SDS011;52465;51.560;14.368;2023-06-10T09:59:54;11.20;;;10.10;;
65552;SDS011;52465;51.560;14.368;2023-06-10T10:02:20;12.80;;;10.10;;
65552;SDS011;52465;51.560;14.368;2023-06-10T10:04:45;11.77;;;9.68;;
65552;SDS011;52465;51.560;14.368;2023-06-10T10:07:12;11.68;;;10.48;;
65552;SDS011;52465;51.560;14.368;2023-06-10T10:09:38;11.38;;;9.25;;
65552;SDS011;52465;51.560;14.368;2023-06-10T10:12:11;11.23;;;10.05;;
65552;SDS011;52465;51.560;14.368;2023-06-10T10:14:39;11.02;;;9.85;;
65552;SDS011;52465;51.560;14.368;2023-06-10T10:17:11;10.13;;;9.13;;
65552;SDS011;52465;51.560;14.368;2023-06-10T10:19:46;10.60;;;9.60;;
65552;SDS011;52465;51.560;14.368;2023-06-10T10:22:26;11.52;;;10.43;;
65552;SDS011;52465;51.560;14.368;2023-06-10T10:24:57;10.55;;;9.30;;
65552;SDS011;52465;51.560;14.368;2023-06-10T10:27:26;10.18;;;9.27;;
65552;SDS011;52465;51.560;14.368;2023-06-10T10:29:53;10.23;;;9.18;;
65552;SDS011;52465;51.560;14.368;2023-06-10T10:32:21;9.45;;;8.55;;
65552;SDS011;52465;51.560;14.368;2023-06-10T10:41:12;9.07;;;8.18;;
65552;SDS011;52465;51.560;14.368;2023-06-10T10:43:39;10.57;;;8.75;;
65552;SDS011;52465;51.560;14.368;2023-06-10T10:46:11;9.25;;;8.15;;
65552;SDS011;52465;51.560;14.368;2023-06-10T10:48:39;9.13;;;8.32;;
65552;SDS011;52465;51.560;14.368;2023-06-10T10:51:06;10.05;;;8.77;;
65552;SDS011;52465;51.560;14.368;2023-06-10T10:53:32;9.32;;;8.52;;
65552;SDS011;52465;51.560;14.368;2023-06-10T10:55:58;8.70;;;7.90;;
65552;SDS011;52465;51.560;14.368;2023-06-10T10:58:30;9.43;;;8.18;;
65552;SDS011;52465;51.560;14.368;2023-06-10T11:00:57;9.18;;;8.27;;
65552;SDS011;52465;51.560;14.368;2023-06-10T11:03:22;8.50;;;7.80;;
65552;SDS011;52465;51.560;14.368;2023-06-10T11:05:53;9.27;;;8.48;;
65552;SDS011;52465;51.560;14.368;2023-06-10T11:10:54;8.75;;;7.93;;
65552;SDS011;52465;51.560;14.368;2023-06-10T11:13:20;9.23;;;8.38;;
65552;SDS011;52465;51.560;14.368;2023-06-10T11:15:50;8.20;;;7.50;;
65552;SDS011;52465;51.560;14.368;2023-06-10T11:21:16;9.10;;;8.20;;
65552;SDS011;52465;51.560;14.368;2023-06-10T11:23:41;8.80;;;7.93;;
65552;SDS011;52465;51.560;14.368;2023-06-10T11:31:23;8.93;;;7.68;;
65552;SDS011;52465;51.560;14.368;2023-06-10T11:33:52;9.10;;;8.27;;
65552;SDS011;52465;51.560;14.368;2023-06-10T11:36:18;9.10;;;8.25;;
65552;SDS011;52465;51.560;14.368;2023-06-10T11:38:44;9.18;;;7.30;;
65552;SDS011;52465;51.560;14.368;2023-06-10T11:41:10;9.13;;;7.82;;
65552;SDS011;52465;51.560;14.368;2023-06-10T11:43:36;8.05;;;7.30;;
65552;SDS011;52465;51.560;14.368;2023-06-10T11:46:02;8.10;;;7.40;;
65552;SDS011;52465;51.560;14.368;2023-06-10T11:48:27;9.05;;;7.85;;
65552;SDS011;52465;51.560;14.368;2023-06-10T11:50:56;8.50;;;7.70;;
65552;SDS011;52465;51.560;14.368;2023-06-10T11:53:21;7.90;;;7.20;;
65552;SDS011;52465;51.560;14.368;2023-06-10T11:55:48;8.40;;;7.63;;
65552;SDS011;52465;51.560;14.368;2023-06-10T11:58:18;8.48;;;7.63;;
65552;SDS011;52465;51.560;14.368;2023-06-10T12:00:49;8.18;;;7.47;;
65552;SDS011;52465;51.560;14.368;2023-06-10T12:03:25;8.27;;;7.53;;
65552;SDS011;52465;51.560;14.368;2023-06-10T12:09:59;8.27;;;7.57;;
65552;SDS011;52465;51.560;14.368;2023-06-10T12:12:25;8.15;;;7.35;;
65552;SDS011;52465;51.560;14.368;2023-06-10T12:14:51;7.75;;;7.03;;
65552;SDS011;52465;51.560;14.368;2023-06-10T12:17:20;8.48;;;7.72;;
65552;SDS011;52465;51.560;14.368;2023-06-10T12:19:47;10.02;;;7.35;;
65552;SDS011;52465;51.560;14.368;2023-06-10T12:22:13;7.80;;;7.10;;
65552;SDS011;52465;51.560;14.368;2023-06-10T12:28:27;8.55;;;7.20;;
65552;SDS011;52465;51.560;14.368;2023-06-10T12:34:07;7.63;;;6.93;;
65552;SDS011;52465;51.560;14.368;2023-06-10T12:36:38;7.85;;;7.15;;
65552;SDS011;52465;51.560;14.368;2023-06-10T12:39:04;7.75;;;7.13;;
65552;SDS011;52465;51.560;14.368;2023-06-10T12:41:29;7.65;;;6.95;;
65552;SDS011;52465;51.560;14.368;2023-06-10T12:43:54;7.93;;;7.22;;
65552;SDS011;52465;51.560;14.368;2023-06-10T12:46:20;8.35;;;7.50;;
65552;SDS011;52465;51.560;14.368;2023-06-10T12:48:51;8.35;;;7.47;;
65552;SDS011;52465;51.560;14.368;2023-06-10T12:51:17;8.23;;;7.47;;
65552;SDS011;52465;51.560;14.368;2023-06-10T12:53:43;8.32;;;6.90;;
65552;SDS011;52465;51.560;14.368;2023-06-10T12:56:09;7.45;;;6.75;;
65552;SDS011;52465;51.560;14.368;2023-06-10T12:58:34;8.63;;;7.00;;
65552;SDS011;52465;51.560;14.368;2023-06-10T13:01:00;8.15;;;7.38;;
65552;SDS011;52465;51.560;14.368;2023-06-10T13:03:25;7.55;;;6.95;;
65552;SDS011;52465;51.560;14.368;2023-06-10T13:05:51;7.80;;;7.00;;
65552;SDS011;52465;51.560;14.368;2023-06-10T13:08:16;7.65;;;6.93;;
65552;SDS011;52465;51.560;14.368;2023-06-10T13:10:42;7.20;;;6.60;;
65552;SDS011;52465;51.560;14.368;2023-06-10T13:13:07;7.65;;;6.88;;
65552;SDS011;52465;51.560;14.368;2023-06-10T13:15:34;7.50;;;6.90;;
65552;SDS011;52465;51.560;14.368;2023-06-10T13:18:03;7.55;;;6.85;;
65552;SDS011;52465;51.560;14.368;2023-06-10T13:20:29;7.95;;;7.03;;
65552;SDS011;52465;51.560;14.368;2023-06-10T13:22:54;7.68;;;7.00;;
65552;SDS011;52465;51.560;14.368;2023-06-10T13:25:20;7.68;;;6.80;;
65552;SDS011;52465;51.560;14.368;2023-06-10T13:27:45;7.13;;;6.53;;
65552;SDS011;52465;51.560;14.368;2023-06-10T13:30:11;7.65;;;6.53;;
65552;SDS011;52465;51.560;14.368;2023-06-10T13:32:37;6.88;;;6.30;;
65552;SDS011;52465;51.560;14.368;2023-06-10T13:35:02;7.30;;;6.57;;
65552;SDS011;52465;51.560;14.368;2023-06-10T13:37:28;7.45;;;6.65;;
65552;SDS011;52465;51.560;14.368;2023-06-10T13:39:53;7.38;;;6.57;;
65552;SDS011;52465;51.560;14.368;2023-06-10T13:42:19;7.35;;;6.65;;
65552;SDS011;52465;51.560;14.368;2023-06-10T13:44:45;7.63;;;6.85;;
65552;SDS011;52465;51.560;14.368;2023-06-10T13:47:12;6.75;;;6.15;;
65552;SDS011;52465;51.560;14.368;2023-06-10T13:49:38;8.27;;;7.32;;
65552;SDS011;52465;51.560;14.368;2023-06-10T13:52:03;6.80;;;6.30;;
65552;SDS011;52465;51.560;14.368;2023-06-10T13:54:29;7.30;;;6.60;;
65552;SDS011;52465;51.560;14.368;2023-06-10T13:56:57;7.45;;;6.68;;
65552;SDS011;52465;51.560;14.368;2023-06-10T13:59:24;7.80;;;6.95;;
65552;SDS011;52465;51.560;14.368;2023-06-10T14:01:49;9.50;;;6.65;;
65552;SDS011;52465;51.560;14.368;2023-06-10T14:04:14;7.13;;;6.53;;
65552;SDS011;52465;51.560;14.368;2023-06-10T14:06:40;7.30;;;6.70;;
65552;SDS011;52465;51.560;14.368;2023-06-10T14:09:09;7.40;;;6.57;;
65552;SDS011;52465;51.560;14.368;2023-06-10T14:11:35;7.50;;;6.72;;
65552;SDS011;52465;51.560;14.368;2023-06-10T14:14:00;8.40;;;6.78;;
65552;SDS011;52465;51.560;14.368;2023-06-10T14:16:26;8.02;;;6.70;;
65552;SDS011;52465;51.560;14.368;2023-06-10T14:18:51;7.40;;;6.70;;
65552;SDS011;52465;51.560;14.368;2023-06-10T14:21:17;7.55;;;6.85;;
65552;SDS011;52465;51.560;14.368;2023-06-10T14:23:42;7.07;;;6.47;;
65552;SDS011;52465;51.560;14.368;2023-06-10T14:26:10;7.65;;;7.03;;
65552;SDS011;52465;51.560;14.368;2023-06-10T14:28:35;7.22;;;6.63;;
65552;SDS011;52465;51.560;14.368;2023-06-10T14:31:01;8.07;;;7.32;;
65552;SDS011;52465;51.560;14.368;2023-06-10T14:33:26;6.95;;;6.28;;
65552;SDS011;52465;51.560;14.368;2023-06-10T14:35:52;6.97;;;6.32;;
65552;SDS011;52465;51.560;14.368;2023-06-10T14:38:17;7.72;;;7.00;;
65552;SDS011;52465;51.560;14.368;2023-06-10T14:40:43;7.88;;;7.00;;
65552;SDS011;52465;51.560;14.368;2023-06-10T14:43:09;7.65;;;6.72;;
65552;SDS011;52465;51.560;14.368;2023-06-10T14:45:38;7.05;;;6.45;;
65552;SDS011;52465;51.560;14.368;2023-06-10T14:48:05;7.50;;;6.80;;
65552;SDS011;52465;51.560;14.368;2023-06-10T14:50:32;7.53;;;6.75;;
65552;SDS011;52465;51.560;14.368;2023-06-10T14:53:00;7.07;;;6.38;;
65552;SDS011;52465;51.560;14.368;2023-06-10T14:55:26;7.45;;;6.75;;
65552;SDS011;52465;51.560;14.368;2023-06-10T14:57:52;7.13;;;6.43;;
65552;SDS011;52465;51.560;14.368;2023-06-10T15:00:18;7.53;;;6.72;;
65552;SDS011;52465;51.560;14.368;2023-06-10T15:02:48;7.00;;;6.40;;
65552;SDS011;52465;51.560;14.368;2023-06-10T15:05:14;7.93;;;7.20;;
65552;SDS011;52465;51.560;14.368;2023-06-10T15:07:40;7.35;;;6.75;;
65552;SDS011;52465;51.560;14.368;2023-06-10T15:10:09;7.43;;;6.72;;